createdAt,value
2019-01-04T00:02:35.491Z,18.15
2019-01-04T00:05:07.686Z,19.20
2019-01-04T00:10:29.894Z,17.57
2019-01-04T00:12:57.782Z,16.95
2019-01-04T00:15:39.178Z,17.02
2019-01-04T00:21:01.477Z,21.55
2019-01-04T00:23:29.485Z,14.50
2019-01-04T00:28:46.826Z,15.88
2019-01-04T00:31:15.170Z,17.45
2019-01-04T00:33:43.154Z,15.03
2019-01-04T00:36:11.114Z,16.37
2019-01-04T00:38:58.043Z,15.70
2019-01-04T00:41:26.217Z,14.55
2019-01-04T00:43:54.154Z,18.80
2019-01-04T00:46:22.174Z,15.32
2019-01-04T00:48:50.046Z,14.30
2019-01-04T00:51:17.954Z,15.93
2019-01-04T00:53:45.833Z,17.25
2019-01-04T00:56:32.813Z,17.17
2019-01-04T00:59:22.050Z,15.35
2019-01-04T01:02:09.002Z,15.23
2019-01-04T01:07:50.294Z,17.70
2019-01-04T01:10:37.281Z,17.77
2019-01-04T01:13:24.270Z,15.70
2019-01-04T01:16:11.255Z,14.43
2019-01-04T01:18:58.468Z,16.95
2019-01-04T01:21:45.695Z,16.62
2019-01-04T01:24:32.606Z,14.93
2019-01-04T01:27:19.614Z,16.25
2019-01-04T01:30:06.598Z,16.02
2019-01-04T01:32:55.854Z,16.50
2019-01-04T01:38:43.806Z,17.00
2019-01-04T01:41:32.719Z,16.87
2019-01-04T01:47:18.538Z,16.25
2019-01-04T01:50:06.370Z,16.30
2019-01-04T01:58:34.672Z,15.48
2019-01-04T02:01:05.429Z,13.95
2019-01-04T02:06:08.798Z,14.98
2019-01-04T02:08:57.525Z,17.05
2019-01-04T02:11:27.147Z,18.17
2019-01-04T02:16:29.783Z,14.35
2019-01-04T02:18:57.714Z,16.12
2019-01-04T02:21:25.618Z,16.87
2019-01-04T02:26:49.466Z,15.18
2019-01-04T02:29:17.448Z,15.80
2019-01-04T02:31:47.442Z,15.20
2019-01-04T02:34:15.376Z,16.32
2019-01-04T02:36:45.284Z,16.73
2019-01-04T02:39:33.206Z,16.65
2019-01-04T02:42:01.072Z,14.87
2019-01-04T02:44:29.032Z,15.75
2019-01-04T02:46:57.111Z,15.90
2019-01-04T02:49:25.054Z,15.55
2019-01-04T02:51:52.975Z,14.65
2019-01-04T02:54:40.203Z,15.30
2019-01-04T02:57:08.076Z,14.13
2019-01-04T02:59:54.946Z,13.40
2019-01-04T03:02:23.278Z,14.73
2019-01-04T03:07:38.200Z,13.45
2019-01-04T03:10:06.218Z,13.43
2019-01-04T03:15:21.188Z,12.85
2019-01-04T03:17:49.122Z,13.60
2019-01-04T03:20:17.513Z,13.48
2019-01-04T03:22:45.399Z,14.00
2019-01-04T03:25:13.321Z,12.20
2019-01-04T03:27:41.791Z,12.90
2019-01-04T03:30:09.659Z,12.50
2019-01-04T03:32:37.518Z,13.70
2019-01-04T03:35:06.569Z,12.33
2019-01-04T03:37:34.501Z,13.05
2019-01-04T03:40:02.388Z,10.85
2019-01-04T03:42:30.265Z,11.12
2019-01-04T03:44:58.203Z,11.85
2019-01-04T03:47:26.085Z,11.45
2019-01-04T03:50:05.847Z,11.63
2019-01-04T03:52:23.643Z,10.68
2019-01-04T03:54:51.482Z,10.43
2019-01-04T03:57:19.406Z,12.73
2019-01-04T03:59:47.254Z,10.05
2019-01-04T04:02:15.194Z,11.83
2019-01-04T04:04:43.220Z,10.68
2019-01-04T04:07:11.091Z,10.70
2019-01-04T04:12:39.124Z,10.68
2019-01-04T04:18:13.145Z,10.75
2019-01-04T04:20:41.311Z,10.28
2019-01-04T04:23:09.161Z,10.70
2019-01-04T04:25:37.115Z,9.53
2019-01-04T04:28:05.003Z,10.40
2019-01-04T04:30:32.947Z,10.25
2019-01-04T04:33:01.226Z,10.90
2019-01-04T04:35:29.106Z,13.60
2019-01-04T04:37:57.001Z,14.55
2019-01-04T04:40:24.919Z,13.75
2019-01-04T04:48:54.839Z,10.78
2019-01-04T04:51:22.739Z,11.25
2019-01-04T04:53:50.673Z,10.95
2019-01-04T04:56:18.621Z,11.30
2019-01-04T04:58:46.497Z,11.85
2019-01-04T05:01:14.433Z,11.85
2019-01-04T05:03:42.341Z,11.73
2019-01-04T05:06:10.279Z,12.50
2019-01-04T05:08:45.594Z,14.73
2019-01-04T05:11:13.560Z,13.53
2019-01-04T05:13:41.433Z,12.90
2019-01-04T05:16:09.739Z,13.60
2019-01-04T05:18:37.642Z,15.45
2019-01-04T05:24:11.681Z,12.98
2019-01-04T05:26:29.397Z,12.85
2019-01-04T05:28:57.281Z,11.53
2019-01-04T05:31:25.226Z,12.95
2019-01-04T05:34:12.100Z,12.63
2019-01-04T05:36:40.022Z,14.38
2019-01-04T05:39:07.911Z,16.35
2019-01-04T05:41:35.842Z,19.23
2019-01-04T05:44:03.761Z,17.00
2019-01-04T05:46:31.725Z,16.50
2019-01-04T05:48:59.599Z,15.60
2019-01-04T05:54:07.324Z,14.40
2019-01-04T05:56:35.220Z,14.35
2019-01-04T05:59:05.396Z,15.03
2019-01-04T06:04:20.362Z,14.78
2019-01-04T06:06:48.228Z,14.78
2019-01-04T06:09:16.879Z,13.13
2019-01-04T06:14:38.500Z,14.50
2019-01-04T06:17:06.523Z,14.95
2019-01-04T06:19:34.522Z,13.48
2019-01-04T06:22:02.432Z,14.70
2019-01-04T06:24:30.338Z,13.93
2019-01-04T06:26:58.988Z,13.62
2019-01-04T06:29:27.018Z,14.35
2019-01-04T06:31:55.158Z,13.75
2019-01-04T06:34:23.004Z,13.88
2019-01-04T06:36:50.825Z,15.08
2019-01-04T06:39:18.654Z,14.80
2019-01-04T06:41:46.478Z,15.95
2019-01-04T06:44:14.306Z,17.92
2019-01-04T06:47:01.185Z,17.00
2019-01-04T06:49:29.030Z,14.58
2019-01-04T06:51:56.846Z,14.05
2019-01-04T06:54:43.731Z,14.98
2019-01-04T06:57:11.533Z,12.37
2019-01-04T06:59:39.354Z,13.53
2019-01-04T07:02:14.425Z,14.65
2019-01-04T07:04:42.280Z,14.73
2019-01-04T07:07:10.078Z,13.60
2019-01-04T07:09:37.898Z,16.32
2019-01-04T07:12:05.848Z,14.60
2019-01-04T07:14:33.641Z,13.93
2019-01-04T07:17:02.635Z,13.83
2019-01-04T07:19:30.481Z,14.40
2019-01-04T07:21:58.459Z,13.38
2019-01-04T07:24:26.248Z,13.68
2019-01-04T07:26:54.111Z,14.45
2019-01-04T07:29:21.906Z,14.85
2019-01-04T07:31:49.725Z,14.35
2019-01-04T07:34:18.226Z,14.68
2019-01-04T07:36:47.133Z,13.78
2019-01-04T07:39:14.935Z,12.85
2019-01-04T07:41:42.770Z,14.60
2019-01-04T07:44:10.584Z,14.73
2019-01-04T07:46:38.407Z,13.50
2019-01-04T07:49:06.275Z,15.10
2019-01-04T07:51:34.081Z,13.98
2019-01-04T07:54:02.213Z,14.23
2019-01-04T07:56:30.022Z,13.65
2019-01-04T07:58:57.857Z,13.58
2019-01-04T08:01:25.673Z,12.13
2019-01-04T08:03:53.558Z,13.20
2019-01-04T08:06:21.356Z,13.83
2019-01-04T08:08:49.195Z,13.38
2019-01-04T08:11:16.996Z,12.65
2019-01-04T08:13:44.833Z,12.37
2019-01-04T08:16:12.628Z,12.55
2019-01-04T08:18:40.497Z,13.70
2019-01-04T08:21:08.312Z,11.73
2019-01-04T08:23:36.112Z,14.20
2019-01-04T08:26:04.033Z,12.78
2019-01-04T08:28:31.873Z,13.32
2019-01-04T08:30:59.705Z,13.75
2019-01-04T08:33:27.541Z,12.45
2019-01-04T08:35:55.354Z,13.68
2019-01-04T08:38:23.180Z,12.07
2019-01-04T08:40:51.007Z,11.60
2019-01-04T08:43:18.825Z,12.35
2019-01-04T08:45:46.671Z,12.15
2019-01-04T08:48:14.492Z,12.15
2019-01-04T08:50:42.338Z,12.40
2019-01-04T08:53:10.166Z,11.10
2019-01-04T08:55:37.985Z,13.03
2019-01-04T08:58:05.794Z,11.57
2019-01-04T09:00:33.635Z,12.70
2019-01-04T09:03:01.433Z,11.55
2019-01-04T09:05:29.258Z,12.75
2019-01-04T09:07:57.101Z,11.33
2019-01-04T09:10:24.927Z,10.53
2019-01-04T09:12:52.765Z,10.28
2019-01-04T09:15:20.610Z,10.25
2019-01-04T09:17:48.470Z,10.45
2019-01-04T09:20:16.273Z,10.00
2019-01-04T09:22:44.467Z,10.00
2019-01-04T09:28:19.772Z,9.53
2019-01-04T09:30:47.577Z,9.43
2019-01-04T09:33:15.415Z,8.98
2019-01-04T09:35:43.241Z,8.95
2019-01-04T09:38:11.358Z,9.20
2019-01-04T09:40:40.196Z,8.38
2019-01-04T09:43:08.700Z,8.05
2019-01-04T09:45:36.507Z,7.90
2019-01-04T09:48:04.358Z,8.18
2019-01-04T09:50:32.203Z,7.50
2019-01-04T09:53:00.068Z,7.53
2019-01-04T09:55:27.904Z,6.30
2019-01-04T09:57:55.845Z,6.22
2019-01-04T10:00:23.650Z,5.45
2019-01-04T10:02:51.517Z,5.60
2019-01-04T10:05:19.358Z,6.05
2019-01-04T10:07:47.193Z,5.83
2019-01-04T10:10:15.384Z,6.15
2019-01-04T10:12:43.239Z,6.05
2019-01-04T10:15:12.499Z,5.83
2019-01-04T10:17:40.337Z,5.40
2019-01-04T10:20:08.509Z,6.45
2019-01-04T10:22:36.340Z,6.53
2019-01-04T10:25:04.277Z,6.25
2019-01-04T10:27:32.109Z,6.50
2019-01-04T10:30:00.162Z,5.90
2019-01-04T10:32:28.010Z,5.15
2019-01-04T10:34:55.853Z,5.90
2019-01-04T10:37:23.681Z,5.87
2019-01-04T10:39:51.538Z,5.67
2019-01-04T10:42:19.381Z,5.95
2019-01-04T10:44:47.222Z,5.92
2019-01-04T10:47:15.186Z,6.20
2019-01-04T10:49:43.041Z,5.83
2019-01-04T10:52:10.883Z,6.28
2019-01-04T10:54:38.726Z,4.87
2019-01-04T10:57:06.614Z,4.65
2019-01-04T10:59:34.490Z,5.20
2019-01-04T11:02:02.304Z,5.40
2019-01-04T11:04:30.117Z,5.95
2019-01-04T11:06:57.970Z,5.55
2019-01-04T11:09:25.777Z,5.00
2019-01-04T11:11:53.644Z,4.30
2019-01-04T11:14:21.498Z,4.90
2019-01-04T11:16:49.392Z,5.37
2019-01-04T11:19:17.436Z,3.87
2019-01-04T11:24:37.993Z,3.95
2019-01-04T11:27:07.186Z,4.28
2019-01-04T11:29:54.078Z,3.98
2019-01-04T11:32:40.977Z,3.65
2019-01-04T11:35:27.872Z,3.40
2019-01-04T11:38:14.811Z,3.80
2019-01-04T11:41:01.742Z,3.40
2019-01-04T11:43:48.650Z,4.30
2019-01-04T11:46:35.582Z,3.50
2019-01-04T11:49:22.514Z,3.67
2019-01-04T11:52:09.458Z,3.47
2019-01-04T11:54:38.625Z,3.58
2019-01-04T11:57:06.862Z,4.00
2019-01-04T11:59:34.725Z,3.08
2019-01-04T12:02:02.547Z,3.40
2019-01-04T12:04:30.373Z,3.85
2019-01-04T12:06:58.221Z,4.03
2019-01-04T12:09:26.038Z,3.60
2019-01-04T12:11:53.844Z,3.65
2019-01-04T12:14:21.978Z,4.00
2019-01-04T12:16:49.899Z,4.22
2019-01-04T12:19:17.745Z,4.65
2019-01-04T12:21:45.546Z,4.28
2019-01-04T12:24:13.402Z,5.08
2019-01-04T12:26:41.221Z,4.72
2019-01-04T12:29:09.064Z,5.33
2019-01-04T12:31:36.865Z,5.17
2019-01-04T12:34:04.721Z,5.60
2019-01-04T12:36:32.539Z,6.12
2019-01-04T12:39:00.363Z,6.37
2019-01-04T12:41:28.222Z,6.30
2019-01-04T12:43:56.027Z,6.70
2019-01-04T12:46:23.835Z,6.85
2019-01-04T12:48:51.671Z,6.30
2019-01-04T12:51:19.509Z,6.35
2019-01-04T12:53:47.356Z,7.10
2019-01-04T12:56:15.224Z,7.03
2019-01-04T12:58:43.049Z,6.85
2019-01-04T13:01:10.908Z,6.47
2019-01-04T13:03:38.789Z,6.47
2019-01-04T13:06:06.644Z,6.22
2019-01-04T13:08:34.453Z,6.58
2019-01-04T13:11:02.265Z,6.65
2019-01-04T13:13:30.106Z,6.95
2019-01-04T13:15:57.929Z,7.55
2019-01-04T13:18:25.792Z,6.47
2019-01-04T13:20:53.610Z,7.72
2019-01-04T13:23:21.474Z,6.35
2019-01-04T13:25:49.320Z,7.15
2019-01-04T13:28:17.234Z,7.30
2019-01-04T13:30:45.055Z,8.33
2019-01-04T13:33:12.908Z,7.12
2019-01-04T13:35:40.855Z,6.80
2019-01-04T13:38:08.664Z,7.65
2019-01-04T13:40:36.481Z,7.92
2019-01-04T13:43:04.334Z,7.62
2019-01-04T13:45:32.210Z,7.45
2019-01-04T13:48:00.062Z,7.70
2019-01-04T13:50:27.901Z,8.05
2019-01-04T13:52:55.727Z,8.58
2019-01-04T13:55:23.529Z,7.42
2019-01-04T13:57:51.390Z,8.63
2019-01-04T14:00:19.207Z,8.25
2019-01-04T14:02:47.064Z,7.70
2019-01-04T14:05:14.941Z,7.30
2019-01-04T14:07:42.798Z,7.65
2019-01-04T14:10:10.602Z,7.60
2019-01-04T14:12:38.461Z,8.45
2019-01-04T14:15:06.615Z,8.13
2019-01-04T14:17:34.515Z,7.22
2019-01-04T14:20:02.354Z,9.05
2019-01-04T14:22:30.190Z,7.97
2019-01-04T14:24:58.014Z,8.63
2019-01-04T14:27:25.901Z,8.15
2019-01-04T14:29:53.736Z,8.13
2019-01-04T14:32:21.571Z,8.53
2019-01-04T14:34:49.453Z,8.60
2019-01-04T14:37:17.262Z,8.30
2019-01-04T14:39:45.149Z,8.65
2019-01-04T14:42:12.974Z,8.33
2019-01-04T14:44:40.817Z,7.92
2019-01-04T14:47:08.634Z,9.23
2019-01-04T14:49:36.661Z,8.70
2019-01-04T14:52:04.457Z,9.15
2019-01-04T14:54:32.297Z,10.65
2019-01-04T14:57:00.145Z,9.38
2019-01-04T14:59:28.007Z,9.13
2019-01-04T15:01:55.841Z,9.10
2019-01-04T15:04:23.700Z,9.48
2019-01-04T15:06:51.562Z,9.95
2019-01-04T15:09:19.402Z,8.40
2019-01-04T15:11:47.271Z,9.05
2019-01-04T15:14:15.183Z,9.45
2019-01-04T15:16:43.030Z,8.33
2019-01-04T15:19:10.898Z,9.03
2019-01-04T15:21:38.988Z,9.08
2019-01-04T15:24:06.808Z,9.40
2019-01-04T15:26:34.655Z,9.30
2019-01-04T15:29:02.467Z,9.30
2019-01-04T15:31:30.367Z,9.20
2019-01-04T15:33:58.235Z,9.80
2019-01-04T15:36:26.112Z,9.05
2019-01-04T15:38:53.983Z,8.25
2019-01-04T15:41:21.857Z,8.53
2019-01-04T15:44:01.615Z,8.83
2019-01-04T15:46:19.278Z,10.43
2019-01-04T15:48:47.115Z,8.20
2019-01-04T15:51:14.993Z,9.70
2019-01-04T15:53:42.878Z,8.88
2019-01-04T15:56:10.799Z,8.48
2019-01-04T15:58:38.679Z,9.38
2019-01-04T16:01:07.510Z,9.75
2019-01-04T16:03:35.402Z,8.90
2019-01-04T16:06:03.233Z,9.33
2019-01-04T16:08:31.138Z,10.00
2019-01-04T16:10:58.984Z,9.03
2019-01-04T16:13:26.844Z,9.75
2019-01-04T16:15:54.678Z,9.40
2019-01-04T16:18:22.675Z,9.80
2019-01-04T16:20:50.520Z,9.80
2019-01-04T16:23:18.379Z,11.18
2019-01-04T16:26:05.240Z,9.55
2019-01-04T16:28:35.378Z,10.23
2019-01-04T16:31:03.219Z,9.60
2019-01-04T16:33:31.138Z,10.15
2019-01-04T16:35:58.965Z,9.40
2019-01-04T16:38:26.824Z,10.23
2019-01-04T16:40:54.763Z,10.25
2019-01-04T16:43:22.662Z,10.82
2019-01-04T16:45:50.493Z,10.63
2019-01-04T16:48:18.359Z,10.10
2019-01-04T16:53:34.854Z,10.65
2019-01-04T16:56:02.749Z,10.60
2019-01-04T16:58:30.620Z,9.60
2019-01-04T17:00:58.462Z,9.80
2019-01-04T17:03:26.334Z,10.48
2019-01-04T17:05:54.253Z,11.15
2019-01-04T17:08:22.086Z,11.08
2019-01-04T17:10:49.962Z,10.50
2019-01-04T17:13:17.837Z,10.35
2019-01-04T17:15:45.915Z,11.00
2019-01-04T17:18:13.799Z,10.55
2019-01-04T17:20:41.715Z,9.70
2019-01-04T17:23:09.667Z,11.85
2019-01-04T17:25:37.521Z,11.05
2019-01-04T17:28:05.387Z,9.90
2019-01-04T17:30:33.320Z,10.68
2019-01-04T17:33:01.153Z,10.15
2019-01-04T17:35:29.027Z,11.03
2019-01-04T17:37:56.874Z,10.60
2019-01-04T17:40:24.780Z,11.05
2019-01-04T17:42:52.628Z,9.80
2019-01-04T17:45:20.515Z,10.45
2019-01-04T17:47:48.537Z,11.05
2019-01-04T17:50:16.388Z,10.43
2019-01-04T17:52:44.307Z,10.88
2019-01-04T17:55:12.158Z,11.03
2019-01-04T17:57:40.053Z,12.45
2019-01-04T18:00:08.771Z,11.30
2019-01-04T18:02:36.637Z,9.93
2019-01-04T18:05:04.543Z,11.12
2019-01-04T18:07:32.433Z,12.85
2019-01-04T18:10:00.302Z,10.58
2019-01-04T18:12:28.170Z,10.28
2019-01-04T18:14:55.977Z,11.43
2019-01-04T18:17:23.851Z,11.93
2019-01-04T18:19:51.811Z,11.63
2019-01-04T18:22:19.725Z,11.95
2019-01-04T18:24:47.554Z,11.80
2019-01-04T18:27:15.451Z,12.68
2019-01-04T18:29:43.360Z,11.57
2019-01-04T18:32:11.192Z,10.93
2019-01-04T18:34:58.147Z,12.80
2019-01-04T18:37:30.795Z,11.68
2019-01-04T18:40:05.736Z,12.13
2019-01-04T18:42:33.639Z,11.18
2019-01-04T18:45:01.583Z,10.98
2019-01-04T18:47:29.501Z,12.98
2019-01-04T18:49:57.467Z,10.93
2019-01-04T18:52:27.177Z,11.73
2019-01-04T18:54:55.525Z,12.50
2019-01-04T18:57:23.425Z,13.32
2019-01-04T19:02:45.207Z,12.30
2019-01-04T19:05:13.159Z,12.40
2019-01-04T19:08:02.419Z,10.85
2019-01-04T19:10:32.380Z,11.97
2019-01-04T19:13:00.285Z,10.60
2019-01-04T19:15:28.201Z,11.83
2019-01-04T19:17:58.658Z,12.37
2019-01-04T19:20:26.640Z,10.82
2019-01-04T19:22:54.641Z,11.70
2019-01-04T19:28:09.715Z,11.53
2019-01-04T19:30:56.622Z,10.65
2019-01-04T19:33:24.506Z,10.15
2019-01-04T19:35:52.790Z,12.40
2019-01-04T19:41:07.858Z,10.75
2019-01-04T19:43:35.782Z,10.30
2019-01-04T19:46:03.693Z,11.20
2019-01-04T19:48:31.935Z,11.88
2019-01-04T19:51:00.213Z,11.53
2019-01-04T19:53:28.050Z,12.80
2019-01-04T19:55:55.998Z,12.47
2019-01-04T19:58:54.155Z,11.93
2019-01-04T20:00:53.608Z,11.28
2019-01-04T20:03:43.158Z,11.15
2019-01-04T20:06:49.782Z,12.18
2019-01-04T20:09:55.764Z,11.90
2019-01-04T20:12:56.661Z,13.45
2019-01-04T20:16:02.861Z,10.98
2019-01-04T20:18:47.173Z,11.20
2019-01-04T20:24:42.484Z,11.55
2019-01-04T20:27:29.584Z,10.78
2019-01-04T20:30:16.919Z,14.28
2019-01-04T20:33:03.786Z,10.13
2019-01-04T20:35:58.611Z,11.10
2019-01-04T20:41:46.405Z,10.82
2019-01-04T20:44:25.419Z,11.70
2019-01-04T20:47:12.350Z,13.53
2019-01-04T20:50:00.205Z,11.68
2019-01-04T20:52:47.406Z,11.18
2019-01-04T20:55:34.324Z,11.45
2019-01-04T21:01:14.991Z,13.03
2019-01-04T21:07:13.334Z,11.70
2019-01-04T21:10:00.230Z,11.30
2019-01-04T21:12:48.069Z,12.30
2019-01-04T21:15:54.056Z,11.40
2019-01-04T21:18:41.028Z,10.65
2019-01-04T21:24:21.988Z,9.95
2019-01-04T21:27:22.847Z,10.30
2019-01-04T21:29:57.515Z,10.70
2019-01-04T21:32:44.472Z,9.20
2019-01-04T21:35:31.434Z,9.28
2019-01-04T21:38:18.542Z,9.93
2019-01-04T21:41:05.440Z,11.57
2019-01-04T21:43:51.939Z,11.85
2019-01-04T21:46:38.852Z,11.85
2019-01-04T21:49:28.109Z,11.78
2019-01-04T21:52:15.000Z,10.13
2019-01-04T21:55:03.495Z,10.75
2019-01-04T21:57:52.433Z,11.00
2019-01-04T22:00:39.320Z,11.18
2019-01-04T22:03:26.255Z,11.20
2019-01-04T22:06:32.203Z,13.22
2019-01-04T22:09:38.148Z,10.35
2019-01-04T22:12:25.012Z,12.75
2019-01-04T22:15:11.932Z,12.20
2019-01-04T22:18:00.222Z,11.28
2019-01-04T22:20:47.107Z,10.95
2019-01-04T22:23:34.006Z,11.75
2019-01-04T22:26:22.889Z,11.05
2019-01-04T22:31:52.551Z,10.60
2019-01-04T22:37:36.989Z,10.30
2019-01-04T22:40:24.112Z,11.73
2019-01-04T22:43:11.103Z,10.55
2019-01-04T22:48:54.989Z,10.50
2019-01-04T22:51:49.379Z,9.73
2019-01-04T22:54:38.015Z,10.78
2019-01-04T22:57:25.251Z,10.90
2019-01-04T23:00:32.702Z,10.00
2019-01-04T23:03:19.667Z,10.20
2019-01-04T23:06:07.344Z,10.03
2019-01-04T23:08:56.353Z,10.08
2019-01-04T23:11:43.293Z,9.58
2019-01-04T23:14:32.491Z,9.85
2019-01-04T23:17:19.442Z,10.10
2019-01-04T23:23:18.358Z,8.58
2019-01-04T23:26:05.239Z,9.70
2019-01-04T23:28:54.148Z,9.50
2019-01-04T23:32:00.113Z,8.43
2019-01-04T23:34:47.015Z,8.55
2019-01-04T23:37:34.338Z,8.65
2019-01-04T23:43:21.857Z,7.37
2019-01-04T23:46:10.722Z,7.30
2019-01-04T23:48:57.702Z,8.05
2019-01-04T23:51:44.579Z,7.95
2019-01-04T23:54:33.783Z,7.92
2019-01-04T23:57:20.685Z,7.47
